Time;durP1;ratioP1;P1;durP2;ratioP2;P2;SDS_P1;SDS_P2;PMS_P1;PMS_P2;Temp;Humidity;BMP_temperature;BMP_pressure;BME280_temperature;BME280_humidity;BME280_pressure;Samples;Min_cycle;Max_cycle;Signal;HPM_P1;HPM_P2
2023/04/17 00:00:19;;;;;;;;;;;;;;;16.15;57.40;102808.59;2071631;28;20297;-53
2023/04/17 00:01:21;;;;;;;;;;;;;;;16.16;57.40;102803.94;2069733;28;20274;-55
2023/04/17 00:02:25;;;;;;;;;;;;;;;16.16;57.62;102804.75;2070417;28;19932;-61
2023/04/17 00:03:27;;;;;;;;;;;;;;;16.15;57.71;102805.88;2071620;28;19936;-54
2023/04/17 00:04:31;;;;;;;;;;;;;;;16.15;57.38;102811.34;2069465;28;19926;-54
2023/04/17 00:05:33;;;;;;;;;;;;;;;16.15;57.46;102808.59;2067903;28;19926;-52
2023/04/17 00:06:36;;;;;;;;;;;;;;;16.16;57.55;102806.66;2064194;28;19934;-53
2023/04/17 00:07:38;;;;;;;;;;;;;;;16.15;57.44;102807.78;2064268;28;19937;-53
2023/04/17 00:08:42;;;;;;;;;;;;;;;16.16;57.40;102803.94;2059085;28;20355;-53
2023/04/17 00:09:43;;;;;;;;;;;;;;;16.15;57.54;102803.16;2063864;28;19936;-54
2023/04/17 00:10:46;;;;;;;;;;;;;;;16.15;57.50;102808.59;2061341;28;19937;-52
2023/04/17 00:11:57;;;;;;;;;;;;;;;16.15;57.39;102810.53;2057947;28;20602;-54
2023/04/17 00:13:00;;;;;;;;;;;;;;;16.14;57.54;102807.00;2069999;28;19936;-54
2023/04/17 00:14:01;;;;;;;;;;;;;;;16.15;57.39;102808.59;2064360;28;20783;-54
2023/04/17 00:15:04;;;;;;;;;;;;;;;16.15;57.41;102807.78;2061943;28;20917;-55
2023/04/17 00:16:09;;;;;;;;;;;;;;;16.15;57.41;102803.16;2062958;28;19964;-54
2023/04/17 00:17:12;;;;;;;;;;;;;;;16.14;57.57;102807.00;2061279;28;19929;-54
2023/04/17 00:18:13;;;;;;;;;;;;;;;16.14;57.42;102807.00;2063246;28;19973;-56
2023/04/17 00:19:16;;;;;;;;;;;;;;;16.14;57.37;102800.75;2066175;28;20361;-56
2023/04/17 00:20:19;;;;;;;;;;;;;;;16.14;57.21;102801.53;2068006;28;20384;-56
2023/04/17 00:21:22;;;;;;;;;;;;;;;16.15;57.55;102802.34;2062276;28;19961;-56
2023/04/17 00:22:24;;;;;;;;;;;;;;;16.14;57.56;102801.53;2056747;28;19933;-56
2023/04/17 00:23:26;;;;;;;;;;;;;;;16.14;57.36;102798.81;2061959;28;20551;-56
2023/04/17 00:24:28;;;;;;;;;;;;;;;16.14;57.65;102808.94;2066027;28;20445;-55
2023/04/17 00:25:30;;;;;;;;;;;;;;;16.14;57.62;102796.09;2060761;28;19937;-58
2023/04/17 00:26:33;;;;;;;;;;;;;;;16.14;57.41;102803.47;2065927;28;19985;-53
2023/04/17 00:27:36;;;;;;;;;;;;;;;16.14;57.66;102807.00;2070459;28;19937;-56
2023/04/17 00:28:37;;;;;;;;;;;;;;;16.13;57.38;102810.84;2063434;28;20735;-54
2023/04/17 00:29:40;;;;;;;;;;;;;;;16.13;57.30;102810.03;2062333;28;19981;-55
2023/04/17 00:30:42;;;;;;;;;;;;;;;16.13;57.22;102810.84;2061388;28;19960;-57
2023/04/17 00:31:44;;;;;;;;;;;;;;;16.13;57.50;102810.84;2065649;28;19930;-56
2023/04/17 00:32:46;;;;;;;;;;;;;;;16.14;57.37;102814.38;2063590;28;20025;-55
2023/04/17 00:33:49;;;;;;;;;;;;;;;16.14;57.53;102800.75;2063849;28;19934;-56
2023/04/17 00:34:51;;;;;;;;;;;;;;;16.13;57.36;102808.13;2064560;28;19976;-55
2023/04/17 00:35:58;;;;;;;;;;;;;;;16.14;57.38;102806.22;2071099;28;19929;-54
2023/04/17 00:37:00;;;;;;;;;;;;;;;16.14;57.44;102812.44;2063730;28;19937;-56
2023/04/17 00:38:03;;;;;;;;;;;;;;;16.13;57.36;102810.84;2054030;28;19930;-56
2023/04/17 00:39:05;;;;;;;;;;;;;;;16.13;57.49;102810.84;2054624;28;19993;-56
2023/04/17 00:40:08;;;;;;;;;;;;;;;16.13;57.42;102810.84;2064434;28;20285;-55
2023/04/17 00:41:10;;;;;;;;;;;;;;;16.13;57.56;102804.59;2059056;28;19926;-57
2023/04/17 00:42:14;;;;;;;;;;;;;;;16.13;57.46;102810.84;2062255;28;20389;-55
2023/04/17 00:43:15;;;;;;;;;;;;;;;16.13;57.39;102805.41;2069977;28;20064;-54
2023/04/17 00:44:18;;;;;;;;;;;;;;;16.12;57.26;102809.28;2067676;28;19929;-55
2023/04/17 00:45:20;;;;;;;;;;;;;;;16.12;57.32;102809.28;2063763;28;19952;-55
2023/04/17 00:46:23;;;;;;;;;;;;;;;16.13;57.57;102810.03;2065329;28;20013;-56
2023/04/17 00:47:25;;;;;;;;;;;;;;;16.12;57.37;102806.53;2053838;28;19986;-55
2023/04/17 00:48:28;;;;;;;;;;;;;;;16.13;57.37;102810.84;2054889;28;20362;-60
2023/04/17 00:49:30;;;;;;;;;;;;;;;16.13;57.39;102810.84;2054028;28;19933;-54
2023/04/17 00:50:33;;;;;;;;;;;;;;;16.13;57.28;102805.41;2054442;28;19937;-56
2023/04/17 00:51:37;;;;;;;;;;;;;;;16.12;57.60;102801.09;2071989;28;19929;-56
2023/04/17 00:52:39;;;;;;;;;;;;;;;16.13;57.64;102808.13;2061207;28;19938;-53
2023/04/17 00:53:41;;;;;;;;;;;;;;;16.13;57.26;102804.59;2064427;28;20305;-56
2023/04/17 00:54:44;;;;;;;;;;;;;;;16.13;57.50;102796.41;2058796;28;19930;-54
2023/04/17 00:55:46;;;;;;;;;;;;;;;16.12;57.40;102809.28;2065171;28;19979;-53
2023/04/17 00:56:50;;;;;;;;;;;;;;;16.12;57.46;102806.53;2063770;28;19929;-56
2023/04/17 00:57:51;;;;;;;;;;;;;;;16.13;57.58;102810.03;2063515;28;19953;-56
2023/04/17 00:58:54;;;;;;;;;;;;;;;16.11;57.53;102807.66;2061185;28;19934;-56
2023/04/17 00:59:56;;;;;;;;;;;;;;;16.12;57.38;102812.00;2064724;28;19930;-56
2023/04/17 01:00:59;;;;;;;;;;;;;;;16.12;57.36;102806.53;2061033;28;20371;-56
2023/04/17 01:02:01;;;;;;;;;;;;;;;16.12;57.39;102795.66;2054290;28;19930;-55
2023/04/17 01:03:04;;;;;;;;;;;;;;;16.12;57.31;102803.00;2058954;28;19944;-56
2023/04/17 01:04:07;;;;;;;;;;;;;;;16.12;57.46;102801.09;2067683;28;19930;-56
2023/04/17 01:05:09;;;;;;;;;;;;;;;16.12;57.54;102809.28;2064321;28;20340;-56
2023/04/17 01:06:11;;;;;;;;;;;;;;;16.12;57.26;102803.00;2080122;28;19932;-56
2023/04/17 01:07:18;;;;;;;;;;;;;;;16.12;57.34;102811.19;2074808;28;19936;-54
2023/04/17 01:08:21;;;;;;;;;;;;;;;16.11;57.51;102802.19;2064429;28;19933;-56
2023/04/17 01:09:23;;;;;;;;;;;;;;;16.11;57.54;102810.38;2056541;28;19981;-55
2023/04/17 01:10:26;;;;;;;;;;;;;;;16.11;57.28;102807.66;2063859;28;20345;-55
2023/04/17 01:11:28;;;;;;;;;;;;;;;16.12;57.44;102813.91;2073279;28;20028;-55
2023/04/17 01:12:31;;;;;;;;;;;;;;;16.12;57.38;102809.28;2055636;28;20496;-55
2023/04/17 01:13:33;;;;;;;;;;;;;;;16.11;57.31;102813.09;2056265;28;20302;-55
2023/04/17 01:14:35;;;;;;;;;;;;;;;16.12;57.58;102819.38;2073900;28;20024;-56
2023/04/17 01:15:38;;;;;;;;;;;;;;;16.11;57.35;102813.09;2072471;28;19937;-54
2023/04/17 01:16:40;;;;;;;;;;;;;;;16.11;57.31;102810.38;2072081;28;19972;-55
2023/04/17 01:17:43;;;;;;;;;;;;;;;16.10;57.58;102808.78;2073182;28;19929;-56
2023/04/17 01:18:47;;;;;;;;;;;;;;;16.11;57.49;102817.78;2075535;28;19982;-54
2023/04/17 01:19:50;;;;;;;;;;;;;;;16.11;57.49;102817.78;2079901;28;19933;-54
2023/04/17 01:20:51;;;;;;;;;;;;;;;16.10;57.32;102822.41;2064996;28;20016;-56
2023/04/17 01:21:54;;;;;;;;;;;;;;;16.10;57.59;102822.41;2056159;28;20018;-55
2023/04/17 01:22:58;;;;;;;;;;;;;;;16.11;57.38;102821.28;2048148;28;20394;-57
2023/04/17 01:24:03;;;;;;;;;;;;;;;16.10;57.51;102816.97;2048936;28;20020;-54
2023/04/17 01:25:05;;;;;;;;;;;;;;;16.10;57.46;102822.41;2064514;28;20384;-54
2023/04/17 01:26:12;;;;;;;;;;;;;;;16.10;57.50;102821.59;2064197;28;20017;-57
2023/04/17 01:27:14;;;;;;;;;;;;;;;16.10;57.48;102822.41;2065052;28;19930;-54
2023/04/17 01:28:18;;;;;;;;;;;;;;;16.11;57.57;102823.22;2070048;28;19930;-57
2023/04/17 01:29:20;;;;;;;;;;;;;;;16.10;57.35;102816.16;2064015;28;19930;-53
2023/04/17 01:30:23;;;;;;;;;;;;;;;16.10;57.32;102821.59;2056715;28;19926;-56
2023/04/17 01:31:40;;;;;;;;;;;;;;;16.10;57.46;102819.69;2055913;28;20436;-56
2023/04/17 01:32:43;;;;;;;;;;;;;;;16.10;57.33;102821.59;2064361;28;20409;-56
2023/04/17 01:33:44;;;;;;;;;;;;;;;16.10;57.29;102825.16;2068356;28;19936;-54
2023/04/17 01:34:47;;;;;;;;;;;;;;;16.08;57.35;102819.22;2064726;28;20365;-55
2023/04/17 01:35:49;;;;;;;;;;;;;;;16.10;57.24;102830.59;2073150;28;21073;-55
2023/04/17 01:36:51;;;;;;;;;;;;;;;16.10;57.54;102827.06;2072038;28;19968;-56
2023/04/17 01:37:54;;;;;;;;;;;;;;;16.10;57.48;102819.69;2071962;28;19930;-55
2023/04/17 01:38:57;;;;;;;;;;;;;;;16.09;57.46;102828.97;2078528;28;20028;-54
2023/04/17 01:40:00;;;;;;;;;;;;;;;16.10;57.52;102827.88;2064718;28;19929;-56
2023/04/17 01:41:08;;;;;;;;;;;;;;;16.10;57.58;102827.06;2059680;28;20440;-56
2023/04/17 01:42:10;;;;;;;;;;;;;;;16.09;57.25;102820.81;2057998;28;20385;-56
2023/04/17 01:43:13;;;;;;;;;;;;;;;16.09;57.32;102826.25;2068678;28;19942;-57
2023/04/17 01:44:15;;;;;;;;;;;;;;;16.09;57.53;102828.19;2071736;28;20402;-54
2023/04/17 01:45:17;;;;;;;;;;;;;;;16.08;57.27;102824.66;2073763;28;20368;-55
2023/04/17 01:46:19;;;;;;;;;;;;;;;16.09;57.59;102826.25;2073288;28;19933;-55
2023/04/17 01:47:23;;;;;;;;;;;;;;;16.09;57.47;102828.97;2057693;28;19930;-56
2023/04/17 01:48:25;;;;;;;;;;;;;;;16.09;57.37;102826.25;2061221;28;20020;-56
2023/04/17 01:49:28;;;;;;;;;;;;;;;16.09;57.30;102826.25;2068463;28;19984;-56
2023/04/17 01:50:29;;;;;;;;;;;;;;;16.09;57.27;102822.75;2069465;28;20107;-55
2023/04/17 01:51:32;;;;;;;;;;;;;;;16.09;57.35;102834.44;2064122;28;20013;-56
2023/04/17 01:52:34;;;;;;;;;;;;;;;16.09;57.41;102830.94;2071208;28;20345;-56
2023/04/17 01:53:37;;;;;;;;;;;;;;;16.09;57.38;102831.69;2071020;28;19940;-56
2023/04/17 01:54:39;;;;;;;;;;;;;;;16.08;57.44;102835.56;2064590;28;19933;-54
2023/04/17 01:55:43;;;;;;;;;;;;;;;16.09;57.25;102826.25;2060627;28;20404;-55
2023/04/17 01:56:46;;;;;;;;;;;;;;;16.09;57.53;102834.44;2072750;28;20427;-52
2023/04/17 01:57:49;;;;;;;;;;;;;;;16.08;57.43;102835.56;2072348;28;19995;-56
2023/04/17 01:58:50;;;;;;;;;;;;;;;16.09;57.29;102837.16;2070213;28;19936;-55
2023/04/17 01:59:54;;;;;;;;;;;;;;;16.09;57.45;102831.69;2071704;28;20024;-57
2023/04/17 02:00:55;;;;;;;;;;;;;;;16.09;57.38;102837.16;2072583;28;19985;-55
2023/04/17 02:01:58;;;;;;;;;;;;;;;16.08;57.38;102838.28;2077624;28;19925;-56
2023/04/17 02:03:00;;;;;;;;;;;;;;;16.08;57.21;102832.03;2074957;28;19933;-57
2023/04/17 02:04:03;;;;;;;;;;;;;;;16.08;57.45;102832.84;2064059;28;19930;-57
2023/04/17 02:05:05;;;;;;;;;;;;;;;16.08;57.29;102829.31;2063895;28;19984;-55
2023/04/17 02:06:08;;;;;;;;;;;;;;;16.08;57.22;102832.03;2077562;28;19960;-57
2023/04/17 02:07:10;;;;;;;;;;;;;;;16.09;57.20;102842.59;2078293;28;20320;-55
2023/04/17 02:08:13;;;;;;;;;;;;;;;16.08;57.33;102840.19;2076739;28;19936;-56
2023/04/17 02:09:14;;;;;;;;;;;;;;;16.08;57.28;102830.13;2078763;28;19928;-55
2023/04/17 02:10:17;;;;;;;;;;;;;;;16.07;57.34;102833.97;2073033;28;20308;-52
2023/04/17 02:11:20;;;;;;;;;;;;;;;16.08;57.27;102834.75;2072777;28;20443;-55
2023/04/17 02:12:25;;;;;;;;;;;;;;;16.07;57.19;102836.69;2072025;28;20407;-54
2023/04/17 02:13:27;;;;;;;;;;;;;;;16.08;57.52;102835.56;2071092;28;19925;-55
2023/04/17 02:14:31;;;;;;;;;;;;;;;16.08;57.41;102834.75;2075171;28;20305;-55
2023/04/17 02:15:33;;;;;;;;;;;;;;;16.07;57.37;102833.97;2073033;28;20369;-57
2023/04/17 02:16:36;;;;;;;;;;;;;;;16.07;57.45;102835.91;2071678;28;20016;-55
2023/04/17 02:17:38;;;;;;;;;;;;;;;16.07;57.44;102831.25;2073146;28;19981;-55
2023/04/17 02:18:41;;;;;;;;;;;;;;;16.07;57.28;102835.91;2072414;28;20934;-54
2023/04/17 02:19:42;;;;;;;;;;;;;;;16.07;57.35;102833.97;2072472;28;20377;-53
2023/04/17 02:20:45;;;;;;;;;;;;;;;16.07;57.21;102828.53;2072878;28;20336;-56
2023/04/17 02:21:46;;;;;;;;;;;;;;;16.07;57.52;102828.53;2074112;28;20427;-54
2023/04/17 02:22:49;;;;;;;;;;;;;;;16.07;57.27;102828.53;2075359;28;19925;-56
2023/04/17 02:23:51;;;;;;;;;;;;;;;16.08;57.43;102830.13;2073420;28;19933;-56
2023/04/17 02:24:53;;;;;;;;;;;;;;;16.07;57.20;102819.53;2076565;28;19930;-56
2023/04/17 02:25:55;;;;;;;;;;;;;;;16.05;57.45;102828.06;2078933;28;19980;-56
2023/04/17 02:27:00;;;;;;;;;;;;;;;16.07;57.11;102827.72;2076173;28;19962;-56
2023/04/17 02:28:02;;;;;;;;;;;;;;;16.07;57.36;102827.72;2075001;28;19974;-56
2023/04/17 02:29:05;;;;;;;;;;;;;;;16.06;57.31;102826.13;2072866;28;19952;-56
2023/04/17 02:30:07;;;;;;;;;;;;;;;16.07;57.19;102827.72;2072869;28;19929;-56
2023/04/17 02:31:11;;;;;;;;;;;;;;;16.06;57.29;102831.59;2071512;28;20553;-55
2023/04/17 02:32:13;;;;;;;;;;;;;;;16.06;57.46;102835.09;2076909;28;19925;-55
2023/04/17 02:33:16;;;;;;;;;;;;;;;16.07;57.19;102825.81;2066431;28;20401;-54
2023/04/17 02:34:18;;;;;;;;;;;;;;;16.06;57.59;102823.41;2063928;28;19926;-56
2023/04/17 02:35:26;;;;;;;;;;;;;;;16.07;57.24;102827.72;2048157;29;20045;-55
2023/04/17 02:36:30;;;;;;;;;;;;;;;16.06;57.21;102826.13;2048185;28;19931;-55
2023/04/17 02:37:32;;;;;;;;;;;;;;;16.06;57.43;102823.41;2063349;28;20356;-56
2023/04/17 02:38:36;;;;;;;;;;;;;;;16.06;57.41;102826.13;2063344;28;19930;-56
2023/04/17 02:39:39;;;;;;;;;;;;;;;16.06;57.36;102823.41;2063508;28;20448;-53
2023/04/17 02:40:40;;;;;;;;;;;;;;;16.05;57.47;102819.88;2065478;28;19934;-54
2023/04/17 02:41:44;;;;;;;;;;;;;;;16.06;57.25;102826.13;2069952;28;20011;-57
2023/04/17 02:42:47;;;;;;;;;;;;;;;16.05;57.21;102819.88;2074022;28;20306;-54
2023/04/17 02:43:50;;;;;;;;;;;;;;;16.06;57.10;102826.91;2064267;28;19934;-56
2023/04/17 02:44:52;;;;;;;;;;;;;;;16.05;57.41;102825.31;2054371;28;20024;-56
2023/04/17 02:45:56;;;;;;;;;;;;;;;16.05;57.40;102822.59;2062696;28;20456;-57
2023/04/17 02:46:59;;;;;;;;;;;;;;;16.06;57.29;102817.97;2072893;28;20262;-56
2023/04/17 02:48:05;;;;;;;;;;;;;;;16.05;57.26;102821.78;2066690;28;19936;-54
2023/04/17 02:49:07;;;;;;;;;;;;;;;16.05;57.53;102819.06;2059578;28;19941;-56
2023/04/17 02:50:11;;;;;;;;;;;;;;;16.05;57.20;102814.44;2055967;28;19980;-55
2023/04/17 02:51:23;;;;;;;;;;;;;;;16.05;57.13;102817.16;2070962;28;20344;-58
2023/04/17 02:52:26;;;;;;;;;;;;;;;16.05;57.13;102819.88;2071215;28;19929;-57
2023/04/17 02:53:28;;;;;;;;;;;;;;;16.05;57.48;102808.16;2066808;28;19977;-56
2023/04/17 02:54:31;;;;;;;;;;;;;;;16.04;57.27;102801.94;2066492;28;20425;-57
2023/04/17 02:55:32;;;;;;;;;;;;;;;16.03;57.23;102805.78;2078118;28;20011;-56
2023/04/17 02:56:35;;;;;;;;;;;;;;;16.04;57.28;102812.84;2065253;28;19930;-55
2023/04/17 02:57:37;;;;;;;;;;;;;;;16.04;57.35;102810.13;2052322;28;19930;-57
2023/04/17 02:58:43;;;;;;;;;;;;;;;16.06;57.36;102804.34;2058111;28;20266;-56
2023/04/17 02:59:45;;;;;;;;;;;;;;;16.05;57.23;102808.16;2056280;28;19930;-57
2023/04/17 03:00:47;;;;;;;;;;;;;;;16.05;57.35;102806.25;2063248;28;19929;-53
2023/04/17 03:01:51;;;;;;;;;;;;;;;16.04;57.27;102807.41;2078410;28;19933;-56
2023/04/17 03:02:54;;;;;;;;;;;;;;;16.04;57.16;102804.66;2075706;28;19932;-56
2023/04/17 03:03:56;;;;;;;;;;;;;;;16.05;57.13;102808.16;2074889;28;19929;-56
2023/04/17 03:05:00;;;;;;;;;;;;;;;16.04;57.36;102801.13;2073440;28;19935;-56
2023/04/17 03:06:02;;;;;;;;;;;;;;;16.04;57.09;102795.69;2072242;28;20389;-59
2023/04/17 03:07:08;;;;;;;;;;;;;;;16.04;57.28;102807.41;2064347;28;20338;-55
2023/04/17 03:08:09;;;;;;;;;;;;;;;16.04;57.46;102804.66;2055814;28;20635;-56
2023/04/17 03:09:30;;;;;;;;;;;;;;;16.04;57.12;102801.94;2069410;28;19937;-56
2023/04/17 03:10:32;;;;;;;;;;;;;;;16.04;57.09;102801.13;2072650;28;19929;-57
2023/04/17 03:11:35;;;;;;;;;;;;;;;16.03;57.19;102805.78;2071379;28;19952;-55
2023/04/17 03:12:36;;;;;;;;;;;;;;;16.03;57.25;102800.31;2068941;28;20016;-55
2023/04/17 03:13:40;;;;;;;;;;;;;;;16.03;57.31;102800.31;2072807;28;19925;-56
2023/04/17 03:14:42;;;;;;;;;;;;;;;16.03;57.44;102800.31;2072219;28;19979;-55
2023/04/17 03:15:45;;;;;;;;;;;;;;;16.03;57.34;102805.78;2072032;28;19929;-55
2023/04/17 03:16:47;;;;;;;;;;;;;;;16.03;57.15;102808.50;2078529;28;19936;-56
2023/04/17 03:17:50;;;;;;;;;;;;;;;16.03;57.47;102811.22;2056669;28;20053;-54
2023/04/17 03:18:52;;;;;;;;;;;;;;;16.04;57.38;102806.59;2048441;28;19934;-57
2023/04/17 03:19:54;;;;;;;;;;;;;;;16.03;57.26;102816.66;2058424;28;19961;-55
2023/04/17 03:20:56;;;;;;;;;;;;;;;16.03;57.07;102816.66;2062256;28;20382;-55
2023/04/17 03:22:00;;;;;;;;;;;;;;;16.03;57.36;102822.13;2071334;28;20040;-54
2023/04/17 03:23:03;;;;;;;;;;;;;;;16.04;57.37;102822.94;2079799;28;20416;-56
2023/04/17 03:24:06;;;;;;;;;;;;;;;16.03;57.04;102824.84;2062931;28;19930;-54
2023/04/17 03:25:09;;;;;;;;;;;;;;;16.03;57.25;102821.34;2063340;28;20459;-56
2023/04/17 03:26:19;;;;;;;;;;;;;;;16.03;57.14;102824.06;2058540;28;19980;-56
2023/04/17 03:27:23;;;;;;;;;;;;;;;16.03;57.16;102816.66;2063489;28;19940;-55
2023/04/17 03:28:27;;;;;;;;;;;;;;;16.03;57.25;102821.34;2071373;28;19936;-56
2023/04/17 03:29:31;;;;;;;;;;;;;;;16.02;57.15;102823.25;2070937;28;20486;-54
2023/04/17 03:30:33;;;;;;;;;;;;;;;16.03;57.41;102822.13;2069079;28;20024;-56
2023/04/17 03:31:39;;;;;;;;;;;;;;;16.03;57.39;102826.78;2063156;28;19930;-55
2023/04/17 03:32:42;;;;;;;;;;;;;;;16.02;57.16;102820.53;2063196;28;20301;-55
2023/04/17 03:33:43;;;;;;;;;;;;;;;16.02;57.24;102822.44;2066926;28;19941;-55
2023/04/17 03:34:46;;;;;;;;;;;;;;;16.02;56.92;102825.97;2066122;28;19936;-56
2023/04/17 03:35:48;;;;;;;;;;;;;;;16.02;57.34;102817.81;2066544;28;19932;-57
2023/04/17 03:36:50;;;;;;;;;;;;;;;16.03;57.17;102830.28;2072141;28;20529;-56
2023/04/17 03:37:52;;;;;;;;;;;;;;;16.02;57.26;102817.00;2075627;28;20447;-56
2023/04/17 03:38:56;;;;;;;;;;;;;;;16.02;57.08;102820.53;2064277;28;20394;-54
2023/04/17 03:39:58;;;;;;;;;;;;;;;16.03;57.12;102822.13;2062981;28;19926;-56
2023/04/17 03:41:00;;;;;;;;;;;;;;;16.02;57.26;102815.09;2062925;28;19929;-54
2023/04/17 03:42:02;;;;;;;;;;;;;;;16.02;57.30;102820.53;2063159;28;19977;-56
2023/04/17 03:43:05;;;;;;;;;;;;;;;16.02;57.37;102820.53;2066300;28;20378;-56
2023/04/17 03:44:07;;;;;;;;;;;;;;;16.03;57.07;102821.34;2070859;28;19958;-57
2023/04/17 03:45:12;;;;;;;;;;;;;;;16.02;57.20;102819.72;2069064;28;20539;-55
2023/04/17 03:46:13;;;;;;;;;;;;;;;16.01;57.18;102818.94;2071124;28;20052;-55
2023/04/17 03:47:17;;;;;;;;;;;;;;;16.00;57.37;102821.97;2070664;28;19929;-53
2023/04/17 03:48:19;;;;;;;;;;;;;;;16.01;57.15;102823.59;2063414;28;19931;-56
2023/04/17 03:49:23;;;;;;;;;;;;;;;16.01;57.06;102824.41;2062985;28;19977;-60
2023/04/17 03:50:25;;;;;;;;;;;;;;;16.02;57.07;102825.97;2070573;28;19935;-56
2023/04/17 03:51:31;;;;;;;;;;;;;;;16.02;57.39;102825.19;2072127;28;19945;-56
2023/04/17 03:52:42;;;;;;;;;;;;;;;16.00;57.17;102822.78;2058931;28;19930;-56
2023/04/17 03:53:44;;;;;;;;;;;;;;;16.02;57.20;102825.19;2055757;28;19926;-56
2023/04/17 03:54:47;;;;;;;;;;;;;;;16.02;57.36;102825.97;2063142;28;19936;-55
2023/04/17 03:55:50;;;;;;;;;;;;;;;16.02;57.34;102836.88;2054881;28;19934;-56
2023/04/17 03:57:05;;;;;;;;;;;;;;;16.02;57.36;102819.72;2056496;28;20054;-56
2023/04/17 03:58:08;;;;;;;;;;;;;;;16.01;57.30;102829.84;2054988;28;20086;-56
2023/04/17 03:59:09;;;;;;;;;;;;;;;16.01;57.28;102831.75;2054532;28;19956;-54
2023/04/17 04:00:18;;;;;;;;;;;;;;;16.00;57.58;102833.69;2055904;28;19930;-54
2023/04/17 04:01:27;;;;;;;;;;;;;;;16.01;57.09;102840.75;2070091;28;20719;-56
2023/04/17 04:02:56;;;;;;;;;;;;;;;16.01;57.19;102843.47;2062594;28;19930;-55
2023/04/17 04:04:02;;;;;;;;;;;;;;;16.01;57.31;102838.03;2070931;28;19936;-55
2023/04/17 04:05:05;;;;;;;;;;;;;;;16.01;57.32;102843.47;2062847;28;19980;-56
2023/04/17 04:06:07;;;;;;;;;;;;;;;16.00;57.18;102841.03;2055061;28;19937;-55
2023/04/17 04:07:10;;;;;;;;;;;;;;;16.01;57.28;102848.13;2054474;28;19930;-56
2023/04/17 04:08:12;;;;;;;;;;;;;;;16.01;57.09;102848.13;2055678;28;19981;-55
2023/04/17 04:09:21;;;;;;;;;;;;;;;16.01;57.24;102846.19;2063150;28;20037;-56
2023/04/17 04:10:22;;;;;;;;;;;;;;;16.00;57.05;102841.84;2070398;28;19933;-56
2023/04/17 04:11:27;;;;;;;;;;;;;;;16.02;57.35;102846.97;2072805;28;20175;-56
2023/04/17 04:12:28;;;;;;;;;;;;;;;16.00;57.32;102847.31;2062970;28;19937;-54
2023/04/17 04:13:32;;;;;;;;;;;;;;;16.01;57.27;102845.38;2061710;28;19934;-57
2023/04/17 04:14:36;;;;;;;;;;;;;;;16.00;57.11;102839.13;2063560;28;19925;-56
2023/04/17 04:15:43;;;;;;;;;;;;;;;16.01;57.35;102846.19;2055070;28;19998;-56
2023/04/17 04:16:46;;;;;;;;;;;;;;;16.00;57.21;102847.31;2054999;28;19930;-55
2023/04/17 04:17:49;;;;;;;;;;;;;;;16.01;57.25;102845.38;2062975;28;19937;-55
2023/04/17 04:18:51;;;;;;;;;;;;;;;16.00;57.11;102847.31;2063086;28;20451;-56
2023/04/17 04:19:54;;;;;;;;;;;;;;;16.00;57.20;102850.03;2055085;28;19934;-57
2023/04/17 04:20:55;;;;;;;;;;;;;;;16.00;57.30;102850.03;2058188;28;20029;-56
2023/04/17 04:22:03;;;;;;;;;;;;;;;15.99;57.32;102848.44;2057222;28;19992;-56
2023/04/17 04:23:15;;;;;;;;;;;;;;;16.00;57.05;102858.19;2061763;28;20008;-54
2023/04/17 04:24:19;;;;;;;;;;;;;;;16.00;57.20;102866.38;2063171;28;20010;-54
2023/04/17 04:25:21;;;;;;;;;;;;;;;16.00;57.12;102863.66;2066462;28;19999;-56
2023/04/17 04:26:36;;;;;;;;;;;;;;;16.00;57.23;102860.13;2068603;28;19934;-55
2023/04/17 04:27:38;;;;;;;;;;;;;;;16.00;56.99;102860.13;2063838;28;19929;-54
2023/04/17 04:28:42;;;;;;;;;;;;;;;15.99;57.04;102856.63;2062668;28;19930;-56
2023/04/17 04:29:57;;;;;;;;;;;;;;;16.00;57.10;102854.66;2070132;28;19929;-56
2023/04/17 04:31:03;;;;;;;;;;;;;;;15.99;57.27;102856.63;2062664;28;19929;-56
2023/04/17 04:32:12;;;;;;;;;;;;;;;15.99;57.11;102853.88;2056135;28;19930;-56
2023/04/17 04:33:19;;;;;;;;;;;;;;;16.00;57.22;102850.03;2062652;28;19937;-56
2023/04/17 04:34:24;;;;;;;;;;;;;;;16.00;56.99;102857.41;2065497;28;19936;-56
2023/04/17 04:35:29;;;;;;;;;;;;;;;16.00;56.52;102862.84;2061488;28;19968;-56
2023/04/17 04:36:34;;;;;;;;;;;;;;;15.98;57.09;102863.16;2069140;28;19930;-57
2023/04/17 04:37:50;;;;;;;;;;;;;;;15.99;57.19;102861.25;2070404;28;19930;-55
2023/04/17 04:38:58;;;;;;;;;;;;;;;15.99;57.12;102866.72;2074309;28;19929;-56
2023/04/17 04:40:09;;;;;;;;;;;;;;;16.00;57.06;102862.84;2072360;28;20012;-55
2023/04/17 04:41:16;;;;;;;;;;;;;;;15.99;57.11;102859.34;2065373;28;19929;-56
2023/04/17 04:42:20;;;;;;;;;;;;;;;15.99;57.22;102851.16;2065555;28;19929;-54
2023/04/17 04:43:46;;;;;;;;;;;;;;;16.00;57.25;102860.13;2068030;28;20025;-56
2023/04/17 04:44:49;;;;;;;;;;;;;;;15.99;57.29;102859.34;2057275;28;19938;-57
2023/04/17 04:45:52;;;;;;;;;;;;;;;15.99;57.26;102858.53;2057280;28;19930;-56
2023/04/17 04:46:56;;;;;;;;;;;;;;;15.98;57.23;102863.16;2057523;28;19934;-54
2023/04/17 04:47:59;;;;;;;;;;;;;;;15.98;57.20;102857.72;2057693;28;19937;-57
2023/04/17 04:49:02;;;;;;;;;;;;;;;15.98;57.30;102863.16;2065306;28;20561;-56
2023/04/17 04:50:07;;;;;;;;;;;;;;;15.99;57.18;102863.97;2077934;28;20365;-54
2023/04/17 04:51:11;;;;;;;;;;;;;;;15.98;57.25;102860.44;2063901;28;19930;-55
2023/04/17 04:52:14;;;;;;;;;;;;;;;15.98;57.31;102852.28;2069348;28;19934;-54
2023/04/17 04:53:16;;;;;;;;;;;;;;;15.98;57.05;102863.16;2082892;28;19944;-56
2023/04/17 04:54:28;;;;;;;;;;;;;;;15.98;57.01;102860.44;2067745;28;19929;-56
2023/04/17 04:55:34;;;;;;;;;;;;;;;15.99;57.17;102867.50;2065090;28;19965;-56
2023/04/17 04:56:37;;;;;;;;;;;;;;;15.98;57.18;102865.91;2073546;28;20437;-55
2023/04/17 04:57:39;;;;;;;;;;;;;;;15.98;57.09;102863.16;2065579;28;20016;-53
2023/04/17 04:58:41;;;;;;;;;;;;;;;15.98;57.21;102874.06;2073372;28;19972;-54
2023/04/17 04:59:44;;;;;;;;;;;;;;;15.98;56.96;102860.44;2073500;28;19971;-54
2023/04/17 05:01:00;;;;;;;;;;;;;;;15.98;57.27;102862.41;2066488;28;19926;-54
2023/04/17 05:02:10;;;;;;;;;;;;;;;15.98;57.23;102867.84;2066810;28;19925;-55
2023/04/17 05:03:12;;;;;;;;;;;;;;;15.98;57.27;102867.84;2065594;28;19988;-52
2023/04/17 05:04:15;;;;;;;;;;;;;;;15.98;57.17;102878.75;2065386;28;20458;-53
2023/04/17 05:05:17;;;;;;;;;;;;;;;15.98;57.03;102882.25;2065463;28;19925;-54
2023/04/17 05:06:20;;;;;;;;;;;;;;;15.98;57.17;102881.47;2072173;28;19979;-55
2023/04/17 05:07:27;;;;;;;;;;;;;;;15.98;57.10;102884.19;2070770;28;19926;-55
2023/04/17 05:08:32;;;;;;;;;;;;;;;15.98;57.27;102884.19;2069618;28;20293;-55
2023/04/17 05:09:41;;;;;;;;;;;;;;;15.98;57.15;102893.13;2073882;28;21923;-54
2023/04/17 05:10:45;;;;;;;;;;;;;;;15.98;57.20;102887.69;2065279;28;19929;-54
2023/04/17 05:11:47;;;;;;;;;;;;;;;15.96;57.01;102881.78;2059959;28;19926;-55
2023/04/17 05:12:50;;;;;;;;;;;;;;;15.98;57.29;102893.13;2071506;28;19952;-54
2023/04/17 05:13:52;;;;;;;;;;;;;;;15.98;57.27;102889.63;2077298;28;20335;-54
2023/04/17 05:14:59;;;;;;;;;;;;;;;15.98;57.26;102887.69;2072039;28;20024;-54
2023/04/17 05:16:02;;;;;;;;;;;;;;;15.98;57.21;102895.88;2057598;28;20409;-56
2023/04/17 05:17:06;;;;;;;;;;;;;;;15.98;56.99;102895.88;2058315;28;19934;-52
2023/04/17 05:18:09;;;;;;;;;;;;;;;15.98;57.31;102898.59;2070368;28;19926;-57
2023/04/17 05:19:12;;;;;;;;;;;;;;;15.99;57.18;102891.22;2073171;28;19933;-53
2023/04/17 05:20:25;;;;;;;;;;;;;;;15.97;57.16;102899.72;2061586;28;19934;-52
2023/04/17 05:21:31;;;;;;;;;;;;;;;15.98;57.00;102897.81;2057233;28;19930;-54
2023/04/17 05:22:34;;;;;;;;;;;;;;;15.98;57.01;102900.53;2060567;28;20522;-54
2023/04/17 05:23:46;;;;;;;;;;;;;;;15.97;57.13;102899.72;2071759;28;20467;-54
2023/04/17 05:24:47;;;;;;;;;;;;;;;15.97;56.99;102897.00;2073813;28;19926;-54
2023/04/17 05:25:51;;;;;;;;;;;;;;;15.97;57.28;102896.19;2073442;28;20020;-54
2023/04/17 05:26:53;;;;;;;;;;;;;;;15.97;57.13;102901.66;2063478;28;19933;-52